Time;durP1;ratioP1;P1;durP2;ratioP2;P2;SDS_P1;SDS_P2;PMS_P1;PMS_P2;Temp;Humidity;BMP_temperature;BMP_pressure;BME280_temperature;BME280_humidity;BME280_pressure;Samples;Min_cycle;Max_cycle;Signal;HPM_P1;HPM_P2
2023/02/20 00:00:35;;;;;;;;;57.75;47.00;;;;;7.98;100.00;102561.53;5143152;27;45340;-75
2023/02/20 00:03:01;;;;;;;;;63.75;50.50;;;;;7.94;100.00;102543.22;5143549;27;45339;-75
2023/02/20 00:05:26;;;;;;;;;59.50;48.25;;;;;7.93;100.00;102546.03;5142922;27;46532;-75
2023/02/20 00:07:51;;;;;;;;;65.00;52.00;;;;;7.94;100.00;102545.88;5143113;27;46059;-75
2023/02/20 00:10:17;;;;;;;;;59.25;48.25;;;;;7.91;100.00;102548.78;5124371;27;45299;-75
2023/02/20 00:12:43;;;;;;;;;57.25;49.00;;;;;7.89;100.00;102545.38;5143525;27;45425;-75
2023/02/20 00:15:12;;;;;;;;;66.50;51.75;;;;;7.90;100.00;102536.47;5142611;27;45366;-75
2023/02/20 00:17:37;;;;;;;;;59.50;49.50;;;;;7.88;100.00;102542.84;5142365;27;46207;-76
2023/02/20 00:20:03;;;;;;;;;57.75;48.25;;;;;7.90;100.00;102530.34;5142841;27;45257;-75
2023/02/20 00:22:29;;;;;;;;;65.75;51.75;;;;;7.85;100.00;102537.78;5124522;27;45333;-75
2023/02/20 00:24:54;;;;;;;;;61.75;50.50;;;;;7.79;100.00;102532.00;5142428;27;45317;-76
2023/02/20 00:27:19;;;;;;;;;63.75;51.00;;;;;7.82;100.00;102536.22;5141566;27;47375;-76
2023/02/20 00:29:46;;;;;;;;;61.00;49.25;;;;;7.77;100.00;102536.53;5143472;27;45229;-75
2023/02/20 00:32:12;;;;;;;;;64.00;51.00;;;;;7.76;100.00;102541.94;5142920;27;45516;-75
2023/02/20 00:34:37;;;;;;;;;61.00;50.25;;;;;7.72;100.00;102540.47;5143397;27;45381;-76
2023/02/20 00:37:03;;;;;;;;;61.50;50.00;;;;;7.70;100.00;102545.88;5143372;27;46319;-75
2023/02/20 00:39:28;;;;;;;;;59.75;49.50;;;;;7.67;100.00;102540.81;5124510;27;45405;-75
2023/02/20 00:41:55;;;;;;;;;60.50;49.00;;;;;7.66;100.00;102544.41;5143651;27;45444;-75
2023/02/20 00:44:21;;;;;;;;;56.50;46.25;;;;;7.62;100.00;102541.13;5143232;27;45312;-75
2023/02/20 00:46:46;;;;;;;;;62.75;51.50;;;;;7.53;100.00;102534.69;5143212;27;45352;-76
2023/02/20 00:49:12;;;;;;;;;60.25;49.25;;;;;7.56;100.00;102545.06;5143428;27;45361;-76
2023/02/20 00:51:37;;;;;;;;;59.75;49.50;;;;;7.51;100.00;102539.25;5130276;27;45238;-75
2023/02/20 00:54:02;;;;;;;;;55.75;46.00;;;;;7.49;100.00;102525.31;5119222;27;45247;-76
2023/02/20 00:56:28;;;;;;;;;64.00;50.00;;;;;7.53;100.00;102534.69;5142695;27;45286;-75
2023/02/20 00:58:53;;;;;;;;;64.00;50.50;;;;;7.51;100.00;102535.78;5142585;27;45655;-75
2023/02/20 01:01:19;;;;;;;;;59.75;47.50;;;;;7.52;100.00;102532.16;5124344;27;45348;-75
2023/02/20 01:03:44;;;;;;;;;53.00;44.25;;;;;7.50;100.00;102526.13;5142474;27;45273;-75
2023/02/20 01:06:10;;;;;;;;;58.25;47.50;;;;;7.48;100.00;102523.59;5142572;27;46126;-75
2023/02/20 01:08:35;;;;;;;;;57.50;46.75;;;;;7.50;100.00;102524.34;5142267;27;45232;-75
2023/02/20 01:11:00;;;;;;;;;60.50;48.75;;;;;7.49;100.00;102520.00;5142635;27;45284;-75
2023/02/20 01:13:26;;;;;;;;;55.00;46.25;;;;;7.40;100.00;102510.06;5142306;27;45426;-76
2023/02/20 01:15:51;;;;;;;;;56.25;47.00;;;;;7.42;100.00;102524.03;5142068;27;45621;-75
2023/02/20 01:18:16;;;;;;;;;55.25;45.25;;;;;7.42;100.00;102535.47;5142430;27;45293;-75
2023/02/20 01:20:42;;;;;;;;;59.75;47.50;;;;;7.41;100.00;102543.50;5142307;27;45234;-75
2023/02/20 01:23:07;;;;;;;;;57.25;45.75;;;;;7.34;100.00;102537.81;5142086;27;45242;-75
2023/02/20 01:25:33;;;;;;;;;58.25;47.00;;;;;7.37;100.00;102529.66;5140768;27;48128;-75
2023/02/20 01:27:58;;;;;;;;;58.00;45.75;;;;;7.37;100.00;102524.38;5139355;27;45511;-75
2023/02/20 01:30:23;;;;;;;;;61.00;51.00;;;;;7.32;100.00;102515.91;5141944;27;45362;-75
2023/02/20 01:32:48;;;;;;;;;57.25;47.75;;;;;7.33;100.00;102526.38;5123142;27;45540;-76
2023/02/20 01:35:15;;;;;;;;;58.00;47.00;;;;;7.30;100.00;102528.38;5142168;27;46193;-75
2023/02/20 01:37:40;;;;;;;;;60.25;49.50;;;;;7.30;100.00;102525.75;5141993;27;45376;-75
2023/02/20 01:40:06;;;;;;;;;55.00;44.75;;;;;7.30;100.00;102520.44;5141981;27;45641;-75
2023/02/20 01:42:33;;;;;;;;;58.25;48.50;;;;;7.25;100.00;102528.75;5141758;27;45271;-75
2023/02/20 01:45:21;;;;;;;;;55.00;45.50;;;;;7.23;100.00;102538.56;5140105;27;47228;-75
2023/02/20 01:47:51;;;;;;;;;56.50;45.50;;;;;7.22;100.00;102546.59;5123244;27;46046;-75
2023/02/20 01:50:20;;;;;;;;;58.00;46.25;;;;;7.22;100.00;102543.97;5141840;27;45318;-75
2023/02/20 01:52:51;;;;;;;;;58.00;47.00;;;;;7.19;100.00;102543.22;5141673;27;45353;-75
2023/02/20 01:55:23;;;;;;;;;59.00;47.00;;;;;7.19;100.00;102543.22;5141446;27;46140;-76
2023/02/20 01:57:53;;;;;;;;;58.50;45.50;;;;;7.19;100.00;102550.31;5141715;27;45412;-75
2023/02/20 02:00:20;;;;;;;;;54.75;44.75;;;;;7.16;100.00;102548.72;5123028;27;45420;-75
2023/02/20 02:02:56;;;;;;;;;58.25;48.75;;;;;7.19;100.00;102548.50;5141581;27;45464;-75
2023/02/20 02:05:23;;;;;;;;;56.75;45.75;;;;;7.17;100.00;102544.28;5141216;27;45337;-75
2023/02/20 02:07:49;;;;;;;;;59.25;48.50;;;;;7.16;100.00;102545.25;5141494;27;45496;-75
2023/02/20 02:10:19;;;;;;;;;55.75;44.75;;;;;7.15;100.00;102541.75;5141371;27;45278;-75
2023/02/20 02:12:48;;;;;;;;;48.25;41.25;;;;;7.10;100.00;102538.59;5139849;27;46398;-75
2023/02/20 02:15:16;;;;;;;;;56.00;46.25;;;;;7.10;100.00;102541.22;5122555;27;48438;-76
2023/02/20 02:17:50;;;;;;;;;53.75;46.25;;;;;7.09;100.00;102534.22;5140180;27;45494;-75
2023/02/20 02:20:22;;;;;;;;;52.50;43.00;;;;;7.07;100.00;102526.41;5122655;27;45283;-75
2023/02/20 02:23:06;;;;;;;;;58.25;46.50;;;;;7.09;100.00;102528.13;5141122;27;45257;-76
2023/02/20 02:26:10;;;;;;;;;51.75;42.50;;;;;7.04;100.00;102517.84;5140932;27;45268;-75
2023/02/20 02:29:00;;;;;;;;;59.50;48.75;;;;;7.05;100.00;102525.69;5130067;27;45291;-75
2023/02/20 02:31:43;;;;;;;;;55.00;45.75;;;;;7.02;100.00;102510.03;5122670;27;45577;-75
2023/02/20 02:34:36;;;;;;;;;61.25;47.75;;;;;6.99;100.00;102510.25;5140720;27;45339;-75
2023/02/20 02:37:20;;;;;;;;;56.50;44.00;;;;;6.95;100.00;102503.47;5141060;27;46531;-75
2023/02/20 02:39:57;;;;;;;;;52.50;44.75;;;;;6.96;100.00;102507.81;5110434;27;45908;-74
2023/02/20 02:43:00;;;;;;;;;52.00;44.75;;;;;6.88;100.00;102495.13;5144964;27;45578;-75
2023/02/20 02:45:53;;;;;;;;;58.75;47.75;;;;;6.85;100.00;102490.03;5143871;27;45577;-75
2023/02/20 02:48:27;;;;;;;;;55.50;45.00;;;;;6.88;100.00;102496.94;5107471;27;48435;-76
2023/02/20 02:50:58;;;;;;;;;59.00;49.00;;;;;6.85;100.00;102497.97;5125816;27;45403;-75
2023/02/20 02:53:23;;;;;;;;;58.50;48.25;;;;;6.82;100.00;102483.19;5144771;27;45385;-75
2023/02/20 02:55:49;;;;;;;;;55.75;44.75;;;;;6.83;100.00;102494.59;5144471;27;45599;-75
2023/02/20 02:58:15;;;;;;;;;58.75;49.50;;;;;6.75;100.00;102492.50;5144826;27;46378;-75
2023/02/20 03:00:55;;;;;;;;;59.75;49.75;;;;;6.77;100.00;102489.75;5144648;27;45258;-75
2023/02/20 03:03:33;;;;;;;;;61.75;49.75;;;;;6.75;100.00;102483.72;5144581;27;45727;-75
2023/02/20 03:06:10;;;;;;;;;58.25;48.00;;;;;6.73;100.00;102480.34;5125652;27;46365;-75
2023/02/20 03:08:38;;;;;;;;;60.25;48.25;;;;;6.70;100.00;102470.81;5121952;27;48394;-75
2023/02/20 03:11:08;;;;;;;;;57.00;47.25;;;;;6.69;100.00;102466.47;5135771;27;45310;-75
2023/02/20 03:17:21;;;;;;;;;54.50;46.25;;;;;6.72;100.00;102468.91;5144236;27;45429;-75
2023/02/20 03:19:51;;;;;;;;;54.25;45.50;;;;;6.67;100.00;102465.72;5144119;27;46266;-75
2023/02/20 03:22:33;;;;;;;;;58.50;48.25;;;;;6.65;100.00;102459.72;5122053;27;45353;-76
2023/02/20 03:25:04;;;;;;;;;60.75;48.75;;;;;6.59;100.00;102455.72;5110292;27;45318;-75
2023/02/20 03:27:46;;;;;;;;;59.25;49.00;;;;;6.49;100.00;102450.19;5101440;27;47043;-75
2023/02/20 03:30:18;;;;;;;;;54.50;45.50;;;;;6.50;100.00;102451.88;5123397;27;45547;-75
2023/02/20 03:43:55;;;;;;;;;61.25;48.00;;;;;6.40;100.00;102434.97;5122739;27;45284;-75
2023/02/20 03:46:23;;;;;;;;;57.75;48.00;;;;;6.42;100.00;102436.56;5123239;27;45366;-75
2023/02/20 03:48:57;;;;;;;;;61.00;48.50;;;;;6.41;100.00;102431.41;5122726;27;45579;-75
2023/02/20 03:51:23;;;;;;;;;62.25;50.00;;;;;6.39;100.00;102430.66;5111752;27;45321;-75
2023/02/20 03:53:50;;;;;;;;;62.00;50.25;;;;;6.40;100.00;102433.19;5119091;27;45368;-75
2023/02/20 03:56:25;;;;;;;;;59.00;48.75;;;;;6.37;100.00;102430.75;5123196;27;45404;-75
2023/02/20 03:59:00;;;;;;;;;40.50;36.25;;;;;6.38;100.00;102424.50;5122324;27;45312;-75
2023/02/20 04:01:26;;;;;;;;;57.00;47.50;;;;;6.37;100.00;102417.53;5104188;27;47149;-75
2023/02/20 04:03:55;;;;;;;;;57.75;47.00;;;;;6.40;100.00;102417.34;5122464;27;45328;-75
2023/02/20 04:06:24;;;;;;;;;63.75;49.00;;;;;6.34;100.00;102419.56;5122790;27;45422;-75
2023/02/20 04:08:55;;;;;;;;;53.25;43.25;;;;;6.36;100.00;102417.66;5108563;27;45455;-75
2023/02/20 04:11:27;;;;;;;;;62.25;49.25;;;;;6.38;100.00;102419.22;5122524;27;45672;-75
2023/02/20 04:13:54;;;;;;;;;61.25;49.25;;;;;6.37;100.00;102414.06;5103723;27;46176;-75
2023/02/20 04:16:21;;;;;;;;;63.75;49.25;;;;;6.33;100.00;102416.06;5122544;27;45342;-75
2023/02/20 04:18:47;;;;;;;;;60.00;48.75;;;;;6.33;100.00;102421.34;5122395;27;45507;-75
2023/02/20 04:21:37;;;;;;;;;58.25;44.75;;;;;6.31;100.00;102417.97;5122209;27;45302;-75
2023/02/20 04:24:08;;;;;;;;;57.00;47.00;;;;;6.26;100.00;102417.44;5128084;27;45305;-75
2023/02/20 04:26:34;;;;;;;;;56.50;46.50;;;;;6.23;100.00;102417.66;5121142;27;45206;-75
2023/02/20 04:29:00;;;;;;;;;56.00;43.75;;;;;6.17;100.00;102413.63;5135153;27;46210;-75
2023/02/20 04:31:26;;;;;;;;;59.00;46.25;;;;;6.13;100.00;102415.63;5120785;27;47365;-75
2023/02/20 04:33:51;;;;;;;;;57.00;47.75;;;;;6.08;100.00;102415.09;5130517;27;45672;-75
2023/02/20 04:36:17;;;;;;;;;52.50;45.50;;;;;6.04;100.00;102411.81;5142062;27;45247;-75
2023/02/20 04:38:42;;;;;;;;;58.50;48.00;;;;;6.05;100.00;102420.59;5124285;27;45999;-75
2023/02/20 04:41:07;;;;;;;;;53.75;44.75;;;;;5.98;100.00;102414.00;5142735;27;46353;-75
2023/02/20 04:43:33;;;;;;;;;53.25;44.50;;;;;6.00;100.00;102412.94;5120683;27;46079;-75
2023/02/20 04:45:58;;;;;;;;;56.50;45.75;;;;;5.99;100.00;102413.88;5141244;27;45302;-75
2023/02/20 04:48:23;;;;;;;;;54.00;45.75;;;;;5.93;100.00;102412.50;5142897;27;45365;-75
2023/02/20 04:50:49;;;;;;;;;57.50;46.25;;;;;5.78;100.00;102395.06;5142705;27;45306;-75
2023/02/20 04:53:14;;;;;;;;;53.25;44.50;;;;;5.89;100.00;102413.66;5142427;27;45367;-75
2023/02/20 04:55:39;;;;;;;;;53.50;44.75;;;;;5.89;100.00;102421.56;5124221;27;45419;-75
2023/02/20 04:58:05;;;;;;;;;55.00;44.00;;;;;5.92;100.00;102425.78;5142632;27;45553;-75
2023/02/20 05:00:30;;;;;;;;;57.25;43.00;;;;;5.93;100.00;102424.84;5142537;27;45309;-75
2023/02/20 05:02:57;;;;;;;;;52.75;43.25;;;;;5.90;100.00;102412.69;5123789;27;45315;-75
2023/02/20 05:05:25;;;;;;;;;50.25;42.50;;;;;5.91;100.00;102413.53;5142711;27;45262;-75
2023/02/20 05:08:02;;;;;;;;;52.75;44.00;;;;;5.95;100.00;102417.66;5142093;27;45356;-75
2023/02/20 05:10:29;;;;;;;;;56.00;44.25;;;;;5.87;100.00;102407.63;5142167;27;48041;-75
2023/02/20 05:12:55;;;;;;;;;53.75;43.75;;;;;5.88;100.00;102411.09;5123987;27;45351;-75
2023/02/20 05:15:21;;;;;;;;;55.00;45.25;;;;;5.86;100.00;102403.28;5142604;27;45336;-75
2023/02/20 05:17:47;;;;;;;;;55.00;45.00;;;;;5.83;100.00;102403.50;5142390;27;45263;-75
2023/02/20 05:20:13;;;;;;;;;52.75;43.75;;;;;5.78;100.00;102397.69;5142248;27;45530;-75
2023/02/20 05:22:39;;;;;;;;;48.75;40.50;;;;;5.77;100.00;102395.97;5123115;27;45395;-75
2023/02/20 05:25:05;;;;;;;;;51.50;43.75;;;;;5.77;100.00;102393.34;5128780;27;45777;-75
2023/02/20 05:27:30;;;;;;;;;55.25;44.50;;;;;5.77;100.00;102390.69;5142139;27;45524;-75
2023/02/20 05:29:58;;;;;;;;;51.00;42.75;;;;;5.77;100.00;102390.69;5140419;27;47223;-75
2023/02/20 05:32:26;;;;;;;;;52.75;44.50;;;;;5.78;100.00;102392.41;5142096;27;45354;-75
2023/02/20 05:34:52;;;;;;;;;54.00;44.75;;;;;5.74;100.00;102385.63;5123357;27;45325;-75
2023/02/20 05:37:19;;;;;;;;;61.75;48.00;;;;;5.71;100.00;102380.59;5142009;27;45259;-75
2023/02/20 05:39:45;;;;;;;;;60.50;49.25;;;;;5.74;100.00;102390.91;5123242;27;48495;-76
2023/02/20 05:42:11;;;;;;;;;61.50;48.75;;;;;5.73;100.00;102387.44;5141775;27;45345;-75
2023/02/20 05:44:36;;;;;;;;;48.00;39.25;;;;;5.72;100.00;102391.00;5123213;27;45351;-75
2023/02/20 05:47:02;;;;;;;;;55.00;45.50;;;;;5.73;100.00;102402.41;5123149;27;45466;-75
2023/02/20 05:49:28;;;;;;;;;54.00;45.25;;;;;5.72;100.00;102398.09;5141965;27;46175;-76
2023/02/20 05:51:56;;;;;;;;;57.75;47.75;;;;;5.73;100.00;102402.41;5141781;27;45381;-75
2023/02/20 05:54:22;;;;;;;;;54.50;47.00;;;;;5.68;100.00;102392.16;5123162;27;45399;-75
2023/02/20 05:56:47;;;;;;;;;57.00;47.50;;;;;5.65;100.00;102389.72;5141491;27;45230;-75
2023/02/20 05:59:17;;;;;;;;;51.75;44.00;;;;;5.69;100.00;102392.06;5141802;27;46220;-75
2023/02/20 06:01:42;;;;;;;;;55.75;46.00;;;;;5.69;100.00;102385.97;5140314;27;46355;-76
2023/02/20 06:04:08;;;;;;;;;55.75;46.00;;;;;5.67;100.00;102379.91;5136203;27;45605;-75
2023/02/20 06:06:36;;;;;;;;;58.00;47.50;;;;;5.68;100.00;102386.88;5116463;27;46556;-74
2023/02/20 06:09:06;;;;;;;;;52.75;46.00;;;;;5.71;100.00;102385.84;5122628;27;48491;-75
2023/02/20 06:11:32;;;;;;;;;54.25;44.25;;;;;5.69;100.00;102394.69;5141314;27;45325;-74
2023/02/20 06:13:57;;;;;;;;;58.25;48.25;;;;;5.67;100.00;102386.06;5122586;27;45263;-75
2023/02/20 06:16:26;;;;;;;;;57.00;46.75;;;;;5.64;100.00;102386.25;5140814;27;45505;-76
2023/02/20 06:18:51;;;;;;;;;52.25;44.00;;;;;5.63;100.00;102389.81;5122838;27;47036;-74
2023/02/20 06:21:17;;;;;;;;;57.25;47.25;;;;;5.64;100.00;102398.59;5141135;27;45294;-76
2023/02/20 06:23:46;;;;;;;;;63.50;49.25;;;;;5.62;100.00;102395.19;5141291;27;45313;-75
2023/02/20 06:26:12;;;;;;;;;57.00;46.50;;;;;5.60;100.00;102403.22;5140899;27;45428;-78
2023/02/20 06:28:39;;;;;;;;;63.50;49.00;;;;;5.60;100.00;102405.03;5141296;27;45322;-75
2023/02/20 06:31:05;;;;;;;;;61.75;51.25;;;;;5.59;100.00;102393.59;5122357;27;45351;-75
2023/02/20 06:33:31;;;;;;;;;62.75;50.75;;;;;5.55;100.00;102389.50;5141440;27;45376;-76
2023/02/20 06:35:57;;;;;;;;;61.50;49.75;;;;;5.55;100.00;102397.41;5122156;27;47370;-75
2023/02/20 06:38:22;;;;;;;;;58.50;47.75;;;;;5.58;100.00;102407.75;5122298;27;48029;-75
2023/02/20 06:40:48;;;;;;;;;62.25;50.75;;;;;5.56;100.00;102404.38;5141039;27;45376;-74
2023/02/20 06:43:13;;;;;;;;;61.25;49.75;;;;;5.53;100.00;102394.88;5143353;27;45579;-74
2023/02/20 06:45:38;;;;;;;;;53.25;44.25;;;;;5.53;100.00;102400.13;5122254;27;46140;-74
2023/02/20 06:48:04;;;;;;;;;59.25;48.25;;;;;5.50;100.00;102391.56;5141467;27;46271;-74
2023/02/20 06:50:29;;;;;;;;;57.25;47.75;;;;;5.54;100.00;102403.63;5140423;27;45458;-74
2023/02/20 06:52:55;;;;;;;;;60.50;48.25;;;;;5.52;100.00;102405.50;5141459;27;45332;-74
2023/02/20 06:55:20;;;;;;;;;64.25;51.00;;;;;5.52;100.00;102397.59;5122353;27;46066;-74
2023/02/20 06:57:45;;;;;;;;;61.50;50.50;;;;;5.58;100.00;102407.75;5122270;27;47180;-74
2023/02/20 07:00:12;;;;;;;;;58.50;49.25;;;;;5.57;100.00;102403.44;5141181;27;45240;-75
2023/02/20 07:02:37;;;;;;;;;59.75;48.00;;;;;5.57;100.00;102403.44;5141161;27;45320;-75
2023/02/20 07:05:04;;;;;;;;;59.75;48.25;;;;;5.60;100.00;102411.13;5140440;27;45319;-75
2023/02/20 07:07:29;;;;;;;;;60.00;48.25;;;;;5.55;100.00;102406.16;5140686;27;46500;-76
2023/02/20 07:09:55;;;;;;;;;57.25;47.50;;;;;5.58;100.00;102407.75;5140262;27;45452;-75
2023/02/20 07:12:20;;;;;;;;;56.25;47.00;;;;;5.63;100.00;102415.38;5141373;27;45416;-75
2023/02/20 07:14:45;;;;;;;;;52.00;44.00;;;;;5.64;100.00;102410.00;5138081;27;47297;-75
2023/02/20 07:17:11;;;;;;;;;60.25;50.00;;;;;5.65;100.00;102422.22;5147262;27;45005;-74
2023/02/20 07:19:36;;;;;;;;;55.50;46.25;;;;;5.66;100.00;102415.19;5145379;27;45290;-75
2023/02/20 07:22:02;;;;;;;;;52.00;43.50;;;;;5.69;100.00;102417.63;5135692;27;45842;-75
2023/02/20 07:24:27;;;;;;;;;55.75;47.00;;;;;5.72;100.00;102417.38;5140794;27;45271;-75
2023/02/20 07:26:52;;;;;;;;;60.50;47.75;;;;;5.75;100.00;102419.81;5123818;27;48101;-75
2023/02/20 07:29:18;;;;;;;;;59.00;47.00;;;;;5.75;100.00;102417.19;5144448;27;45334;-74
2023/02/20 07:31:43;;;;;;;;;63.75;51.75;;;;;5.78;100.00;102419.63;5147217;27;45602;-75
2023/02/20 07:34:09;;;;;;;;;59.25;49.25;;;;;5.81;100.00;102416.78;5145648;27;45310;-75
2023/02/20 07:36:35;;;;;;;;;56.00;44.00;;;;;5.83;100.00;102421.13;5146572;27;45386;-77
2023/02/20 07:39:01;;;;;;;;;48.75;41.00;;;;;5.88;100.00;102427.81;5144617;27;45325;-75
2023/02/20 07:41:30;;;;;;;;;49.75;41.75;;;;;5.90;100.00;102423.25;5149719;27;45311;-76
2023/02/20 07:43:56;;;;;;;;;54.25;44.00;;;;;5.91;100.00;102429.38;5145161;27;45361;-76
2023/02/20 07:46:21;;;;;;;;;56.25;46.00;;;;;5.96;100.00;102426.44;5144598;27;45313;-74
2023/02/20 07:48:47;;;;;;;;;53.75;44.25;;;;;6.03;100.00;102423.28;5143770;27;45368;-78
2023/02/20 07:51:12;;;;;;;;;62.25;50.00;;;;;6.05;100.00;102428.50;5127081;27;45360;-75
2023/02/20 07:53:37;;;;;;;;;58.00;47.00;;;;;6.09;100.00;102429.13;5143862;27;45250;-76
2023/02/20 07:56:04;;;;;;;;;58.75;48.00;;;;;6.10;100.00;102422.91;5125680;27;47196;-75
2023/02/20 07:58:29;;;;;;;;;60.50;49.50;;;;;6.19;100.00;102427.56;5143491;27;45498;-76
2023/02/20 08:00:54;;;;;;;;;57.50;47.75;;;;;6.24;100.00;102440.47;5144544;27;45517;-76
2023/02/20 08:03:20;;;;;;;;;59.25;46.25;;;;;6.28;100.00;102428.72;5143376;27;45467;-76
2023/02/20 08:05:45;;;;;;;;;53.25;44.25;;;;;6.34;100.00;102432.78;5143788;27;46708;-75
2023/02/20 08:08:11;;;;;;;;;48.50;41.50;;;;;6.43;100.00;102426.84;5143089;27;45379;-75
2023/02/20 08:10:36;;;;;;;;;45.00;40.25;;;;;6.49;100.00;102422.97;5143905;27;45291;-75
2023/02/20 08:13:02;;;;;;;;;53.75;43.25;;;;;6.59;100.00;102437.22;5143134;27;45351;-75
2023/02/20 08:15:28;;;;;;;;;43.50;38.50;;;;;6.68;100.00;102443.66;5143572;27;45522;-75
2023/02/20 08:17:54;;;;;;;;;47.50;41.50;;;;;6.74;100.00;102442.38;5143912;27;45381;-75
2023/02/20 08:20:20;;;;;;;;;46.00;38.50;;;;;6.87;100.00;102451.16;5144656;27;45312;-75
2023/02/20 08:22:47;;;;;;;;;44.25;37.00;;;;;6.97;100.00;102453.16;5121488;27;46265;-76
2023/02/20 08:25:14;;;;;;;;;43.50;37.50;;;;;7.03;100.00;102445.63;5144928;27;45272;-75
2023/02/20 08:27:44;;;;;;;;;44.75;40.00;;;;;7.10;100.00;102459.25;5142693;27;45415;-76
2023/02/20 08:30:13;;;;;;;;;43.00;37.50;;;;;7.17;100.00;102449.06;5143329;27;45413;-76
2023/02/20 08:32:39;;;;;;;;;36.75;35.00;;;;;7.26;100.00;102453.72;5129327;27;45311;-75
2023/02/20 08:35:04;;;;;;;;;38.75;35.00;;;;;7.31;100.00;102458.69;5143064;27;45367;-74
2023/02/20 08:37:30;;;;;;;;;36.75;35.00;;;;;7.36;100.00;102453.88;5142140;27;45262;-75
2023/02/20 08:39:55;;;;;;;;;40.75;36.75;;;;;7.44;100.00;102453.34;5143168;27;45351;-74
2023/02/20 08:42:20;;;;;;;;;45.25;38.25;;;;;7.54;100.00;102454.34;5142795;27;45395;-74
2023/02/20 08:44:46;;;;;;;;;42.25;38.75;;;;;7.63;100.00;102449.38;5124673;27;47274;-76
2023/02/20 08:47:11;;;;;;;;;34.75;34.25;;;;;7.70;100.00;102440.00;5142891;27;45314;-73
2023/02/20 08:49:36;;;;;;;;;37.00;35.50;;;;;7.75;100.00;102439.69;5144059;27;45418;-75
2023/02/20 08:52:04;;;;;;;;;38.50;34.00;;;;;7.84;100.00;102444.25;5146521;27;45451;-78
2023/02/20 08:54:29;;;;;;;;;54.50;46.25;;;;;7.93;100.00;102453.34;5122816;27;47998;-78
2023/02/20 08:56:55;;;;;;;;;45.00;40.75;;;;;8.00;100.00;102448.44;5121407;27;45353;-78
2023/02/20 08:59:20;;;;;;;;;53.25;45.75;;;;;8.02;100.00;102447.34;5141390;27;45886;-78
2023/02/20 09:01:45;;;;;;;;;50.75;43.50;;;;;8.10;100.00;102454.72;5142432;27;45336;-78
2023/02/20 09:04:11;;;;;;;;;50.25;38.75;;;;;8.16;100.00;102441.03;5142328;27;45336;-78
2023/02/20 09:06:37;;;;;;;;;44.00;39.25;;;;;8.29;100.00;102456.00;5123692;27;45351;-77
2023/02/20 09:09:02;;;;;;;;;44.50;39.00;;;;;8.32;100.00;102434.56;5123841;27;45260;-78
2023/02/20 09:11:28;;;;;;;;;47.50;40.25;;;;;8.39;100.00;102443.72;5142189;27;45440;-77
2023/02/20 09:13:53;;;;;;;;;49.25;40.50;;;;;8.47;100.00;102445.75;5142293;27;46115;-78
2023/02/20 09:16:22;;;;;;;;;48.25;41.75;;;;;8.56;100.00;102446.91;5141050;27;45269;-77
2023/02/20 09:18:47;;;;;;;;;51.25;44.00;;;;;8.55;100.00;102447.84;5123938;27;45345;-77
2023/02/20 09:21:16;;;;;;;;;48.25;40.00;;;;;8.65;100.00;102445.34;5139367;27;46187;-78
2023/02/20 09:23:41;;;;;;;;;47.75;38.00;;;;;8.71;100.00;102436.94;5141989;27;45322;-77
2023/02/20 09:26:07;;;;;;;;;49.00;40.00;;;;;8.75;100.00;102446.31;5123418;27;45401;-78
2023/02/20 09:28:32;;;;;;;;;35.50;34.75;;;;;8.74;100.00;102431.34;5142405;27;45299;-78
2023/02/20 09:30:59;;;;;;;;;41.00;36.75;;;;;8.87;100.00;102438.34;5123324;27;46002;-78
2023/02/20 09:33:26;;;;;;;;;48.25;39.75;;;;;8.92;100.00;102436.19;5142062;27;46229;-77
2023/02/20 09:35:53;;;;;;;;;43.25;39.25;;;;;8.99;100.00;102433.88;5140649;27;45361;-77
2023/02/20 09:38:25;;;;;;;;;50.00;39.75;;;;;9.09;100.00;102429.53;5142094;27;45258;-78
2023/02/20 09:40:55;;;;;;;;;46.25;39.50;;;;;9.18;100.00;102418.19;5141812;27;45471;-78
2023/02/20 09:43:55;;;;;;;;;46.25;39.50;;;;;9.25;100.00;102420.34;5141831;27;45299;-77
2023/02/20 09:46:22;;;;;;;;;48.50;40.75;;;;;9.34;100.00;102430.22;5119739;27;46478;-78
2023/02/20 09:49:14;;;;;;;;;48.75;39.50;;;;;9.43;100.00;102424.16;5116213;27;45448;-78
2023/02/20 09:51:50;;;;;;;;;47.00;37.75;;;;;9.54;100.00;102420.63;5141662;27;46443;-78
2023/02/20 09:54:30;;;;;;;;;48.50;39.75;;;;;9.68;100.00;102421.31;5141627;27;45571;-77
2023/02/20 09:57:00;;;;;;;;;47.25;39.00;;;;;9.79;100.00;102417.75;5141719;27;45339;-78
2023/02/20 09:59:41;;;;;;;;;47.75;39.25;;;;;9.90;100.00;102412.38;5123172;27;45395;-78
2023/02/20 10:02:25;;;;;;;;;46.50;37.25;;;;;10.04;100.00;102423.66;5141828;27;45372;-74
2023/02/20 10:04:54;;;;;;;;;48.00;37.75;;;;;10.18;100.00;102428.66;5121994;27;47431;-75
2023/02/20 10:07:24;;;;;;;;;40.75;37.00;;;;;10.32;100.00;102416.84;5140180;27;45475;-75
2023/02/20 10:09:51;;;;;;;;;48.25;38.50;;;;;10.47;100.00;102421.84;5141433;27;45333;-77
2023/02/20 10:12:31;;;;;;;;;47.25;38.00;;;;;10.60;100.00;102413.69;5139887;27;45516;-75
2023/02/20 10:15:19;;;;;;;;;36.50;34.75;;;;;10.74;100.00;102412.44;5140857;27;45648;-75
2023/02/20 10:17:48;;;;;;;;;33.33;29.00;;;;;10.90;100.00;102416.44;5140764;27;45353;-75
2023/02/20 10:20:26;;;;;;;;;33.00;29.67;;;;;11.03;100.00;102413.53;5141023;27;45293;-75
2023/02/20 10:23:10;;;;;;;;;38.33;35.00;;;;;11.17;100.00;102413.16;5141566;27;45463;-76
2023/02/20 10:25:44;;;;;;;;;35.67;32.00;;;;;11.28;100.00;102409.50;5136425;27;46208;-76
2023/02/20 10:28:18;;;;;;;;;32.67;31.67;;;;;11.39;100.00;102408.56;5133469;27;45451;-76
2023/02/20 10:30:54;;;;;;;;;28.67;27.33;;;;;11.46;100.00;102407.00;5127876;27;45367;-76
2023/02/20 10:33:26;;;;;;;;;30.67;29.67;;;;;11.58;100.00;102410.38;5121095;27;46500;-75
2023/02/20 10:36:09;;;;;;;;;30.00;28.33;;;;;11.70;100.00;102408.41;5114309;27;47952;-78
2023/02/20 10:39:00;;;;;;;;;32.33;30.33;;;;;11.74;100.00;102407.16;5127786;27;45420;-75
2023/02/20 10:41:41;;;;;;;;;33.00;31.33;;;;;11.86;100.00;102402.50;5140920;27;45408;-75
2023/02/20 10:44:15;;;;;;;;;35.33;30.00;;;;;11.98;100.00;102410.38;5140547;27;45382;-75
2023/02/20 10:47:10;;;;;;;;;32.33;31.33;;;;;12.07;100.00;102408.69;5106749;27;46347;-74
2023/02/20 10:49:44;;;;;;;;;30.33;29.33;;;;;12.18;100.00;102400.53;5133758;27;45517;-76
2023/02/20 10:52:17;;;;;;;;;26.67;24.00;;;;;12.27;100.00;102401.47;5122411;27;45384;-75
2023/02/20 10:54:50;;;;;;;;;32.00;30.00;;;;;12.35;100.00;102400.75;5140317;27;45396;-75
2023/02/20 10:57:32;;;;;;;;;29.67;27.33;;;;;12.44;100.00;102389.22;5140819;27;46186;-75
2023/02/20 11:00:08;;;;;;;;;28.67;27.00;;;;;12.54;100.00;102396.38;5140524;27;45311;-76
2023/02/20 11:02:39;;;;;;;;;33.67;30.67;;;;;12.65;100.00;102389.97;5125896;27;45700;-76
2023/02/20 11:05:16;;;;;;;;;35.00;33.00;;;;;12.73;100.00;102398.09;5145006;27;45506;-76
2023/02/20 11:07:42;;;;;;;;;43.33;36.67;;;;;12.84;100.00;102392.56;5141922;27;47233;-75
2023/02/20 11:10:08;;;;;;;;;39.00;33.00;;;;;12.92;100.00;102393.63;5144657;27;45432;-76
2023/02/20 11:12:39;;;;;;;;;37.00;33.00;;;;;12.97;100.00;102397.56;5125861;27;45471;-75
2023/02/20 11:15:14;;;;;;;;;37.33;33.00;;;;;13.06;100.00;102393.16;5144385;27;45539;-76
2023/02/20 11:17:41;;;;;;;;;34.67;32.33;;;;;13.14;100.00;102384.34;5144213;27;45343;-76
2023/02/20 11:20:34;;;;;;;;;35.67;33.00;;;;;13.21;100.00;102380.13;5144229;27;45372;-76
2023/02/20 11:23:00;;;;;;;;;23.00;20.33;;;;;13.27;100.00;102381.34;5143872;27;45390;-76
2023/02/20 11:25:36;;;;;;;;;42.67;37.33;;;;;13.33;100.00;102382.56;5143901;27;45283;-75
2023/02/20 11:28:14;;;;;;;;;40.33;35.00;;;;;13.41;100.00;102373.78;5143951;27;45224;-76
2023/02/20 11:30:43;;;;;;;;;42.00;35.75;;;;;13.45;100.00;102361.78;5143851;27;45498;-76
2023/02/20 11:33:18;;;;;;;;;45.00;37.50;;;;;13.56;100.00;102363.44;5144174;27;45299;-76